Latest Weather Observations for Lord Howe Island

IDN60801

Issued at 2:34 am EDT Saturday 7 March 2015 (issued every 30 minutes, with the page automatically refreshed every 10 minutes)

About weather observations | Map of weather stations | Latest weather observations for NSW | Other Formats
Station Details ID: 200839 Name: LORD HOWE ISLAND AERO Lat: -31.54 Lon: 159.08 Height: 5.0 m
Data from the previous 72 hours. | See also: Recent months at Lord Howe Island
Date/Time
EDT
Temp
°C
App
Temp
°C
Dew
Point
Rel
Hum
%
Delta-T
°C
Wind Press
QNH
hPa
Press
MSL
hPa
Rain
since 9 am
mm
Dir
 
Spd
km/h
Gust
km/h
Spd
kts
Gust
kts
07/02:30am 24.1 20.4 17.5 66 4.1 W 33 43 18 23 1007.6 - 0.0
07/02:00am 24.0 20.4 17.2 65 4.2 W 32 39 17 21 1007.9 - 0.0
07/01:30am 23.9 20.3 17.1 65 4.2 W 32 39 17 21 1008.0 - 0.0
07/01:00am 23.8 19.8 16.8 65 4.3 W 33 43 18 23 1008.1 - 0.0
07/12:30am 23.9 19.8 16.4 63 4.6 W 33 41 18 22 1008.0 - 0.0
07/12:00am 23.9 20.3 17.1 65 4.2 W 32 39 17 21 1008.1 1008.1 0.0
 
Date/Time
EDT
Temp
°C
App
Temp
°C
Dew
Point
Rel
Hum
%
Delta-T
°C
Wind Press
QNH
hPa
Press
MSL
hPa
Rain
since 9 am
mm
Dir
 
Spd
km/h
Gust
km/h
Spd
kts
Gust
kts
06/11:30pm 23.5 21.1 16.5 65 4.3 W 24 32 13 17 1008.2 - 0.0
06/11:00pm 23.8 20.5 16.1 62 4.7 W 28 35 15 19 1008.2 - 0.0
06/10:30pm 23.7 20.4 16.0 62 4.7 W 28 33 15 18 1008.3 - 0.0
06/10:00pm 23.5 20.0 15.5 60 4.8 W 28 33 15 18 1008.3 - 0.0
06/09:30pm 23.4 19.8 15.2 60 4.9 W 28 33 15 18 1008.2 - 0.0
06/09:00pm 23.5 20.0 14.6 57 5.3 W 26 32 14 17 1008.1 1008.1 0.0
06/08:30pm 23.5 20.0 14.6 57 5.3 W 26 32 14 17 1007.8 - 0.0
06/08:00pm 23.2 19.8 13.6 54 5.6 W 24 32 13 17 1007.4 - 0.0
06/07:30pm 23.1 19.7 13.7 55 5.5 W 24 30 13 16 1006.9 - 0.0
06/07:00pm 23.1 19.4 12.8 52 5.9 W 24 30 13 16 1006.5 - 0.0
06/06:30pm 23.3 19.4 12.2 49 6.3 W 24 32 13 17 1006.4 - 0.0
06/06:00pm 23.7 19.3 11.7 47 6.8 W 26 33 14 18 1006.3 1006.3 0.0
06/05:30pm 24.0 20.9 13.4 51 6.2 W 22 28 12 15 1006.2 - 0.0
06/05:00pm 24.2 19.9 12.1 46 6.9 W 26 35 14 19 1006.2 - 0.0
06/04:30pm 24.6 21.8 13.1 48 6.7 W 20 28 11 15 1006.2 - 0.0
06/04:00pm 25.1 21.8 12.7 46 7.2 W 22 30 12 16 1006.3 - 0.0
06/03:30pm 25.1 22.7 12.7 46 7.2 W 17 24 9 13 1006.4 - 0.0
06/03:00pm 24.6 21.0 12.9 48 6.8 W 24 32 13 17 1006.7 1006.7 0.0
06/02:30pm 25.5 21.7 12.5 44 7.5 W 24 32 13 17 1007.1 - 0.0
06/02:00pm 25.5 22.3 13.0 46 7.3 W 22 30 12 16 1007.4 - 0.0
06/01:30pm 24.4 20.4 11.9 45 7.1 W 24 28 13 15 1007.6 - 0.0
06/01:00pm 25.5 21.9 13.0 46 7.3 W 24 28 13 15 1007.9 - 0.0
06/12:30pm 24.8 21.9 12.9 47 6.9 W 20 28 11 15 1008.1 - 0.0
06/12:00pm 24.6 22.1 12.2 46 7.1 W 17 24 9 13 1008.4 1008.4 0.0
06/11:30am 24.6 22.5 12.4 46 7.0 W 15 20 8 11 1008.7 - 0.0
06/11:00am 23.9 22.2 12.4 48 6.6 W 13 17 7 9 1009.0 - 0.0
06/10:30am 23.7 21.9 12.1 48 6.6 WSW 13 19 7 10 1009.2 - 0.0
06/10:00am 23.8 21.9 11.8 47 6.8 W 13 17 7 9 1009.2 - 0.0
06/09:30am 23.5 21.5 11.6 47 6.7 WSW 13 17 7 9 1009.2 - 0.0
06/09:00am 22.4 19.3 11.5 50 6.1 WSW 19 24 10 13 1009.1 1009.1 -
06/08:30am 22.5 19.7 11.2 48 6.3 WSW 17 24 9 13 1008.8 - -
06/08:00am 22.2 20.3 11.9 52 5.8 SSW 13 20 7 11 1008.6 - -
06/07:30am 21.2 20.0 11.5 54 5.4 SSW 9 13 5 7 1008.3 - -
06/07:00am 20.1 19.6 12.0 59 4.5 SSE 6 9 3 5 1007.9 - -
06/06:30am 18.6 17.6 11.1 61 4.1 SSE 7 11 4 6 1007.4 - -
06/06:00am 20.3 19.0 10.1 52 5.5 S 7 13 4 7 1007.2 1007.2 -
06/05:30am 20.6 18.9 9.8 50 5.8 SSW 9 17 5 9 1007.2 - -
06/05:00am 21.0 18.2 10.1 49 5.9 S 15 26 8 14 1007.3 - -
06/04:30am 21.0 18.6 9.9 49 6.0 SSW 13 20 7 11 1007.2 - -
06/04:00am 21.2 17.7 8.7 44 6.6 SSW 17 28 9 15 1007.1 - -
06/03:30am 21.2 17.6 10.4 50 5.9 SSW 20 33 11 18 1006.9 - -
06/03:00am 21.6 17.3 9.5 46 6.5 SSW 22 35 12 19 1007.2 1007.2 -
06/02:30am 21.4 17.6 9.7 47 6.3 SSW 20 33 11 18 1007.4 - -
06/02:00am 21.4 17.6 9.7 47 6.3 SSW 20 32 11 17 1007.6 - -
06/01:30am 22.0 17.3 11.9 52 5.7 SSW 28 46 15 25 1008.0 - -
06/01:00am 22.3 18.5 12.5 53 5.6 SSW 24 43 13 23 1008.2 - -
06/12:30am 22.6 19.2 12.4 52 5.8 SSW 22 41 12 22 1008.3 - -
06/12:14am 22.4 17.8 12.4 53 5.7 SSW 28 48 15 26 1008.4 - -
06/12:00am 22.4 18.8 13.0 55 5.4 SSW 24 39 13 21 1008.3 1008.3 -
 
Date/Time
EDT
Temp
°C
App
Temp
°C
Dew
Point
Rel
Hum
%
Delta-T
°C
Wind Press
QNH
hPa
Press
MSL
hPa
Rain
since 9 am
mm
Dir
 
Spd
km/h
Gust
km/h
Spd
kts
Gust
kts
05/11:34pm 22.5 18.2 13.3 56 5.3 SSW 28 46 15 25 1008.1 - -
05/11:30pm 22.6 18.7 13.3 55 5.4 SSW 26 39 14 21 1008.1 - -
05/11:04pm 22.7 18.2 13.8 57 5.2 SSW 30 50 16 27 1007.9 - -
05/11:00pm 22.6 18.5 13.9 58 5.1 SSW 28 44 15 24 1007.8 - -
05/10:30pm 22.9 19.1 14.8 60 4.8 SSW 28 50 15 27 1007.6 - -
05/10:00pm 23.2 20.1 15.7 62 4.5 SSW 26 54 14 29 1007.1 - -
05/09:30pm 23.4 19.1 16.9 67 4.0 SSW 35 57 19 31 1006.6 - -
05/09:01pm 23.7 20.3 17.8 69 3.7 SSW 32 52 17 28 1006.0 - -
05/09:00pm 23.7 20.4 18.0 70 3.6 SSW 32 46 17 25 1005.9 1005.9 -
05/08:48pm 23.8 20.0 18.2 71 3.5 SSW 35 56 19 30 1005.7 - -
05/08:31pm 24.0 20.1 19.5 76 2.9 SSW 39 70 21 38 1005.1 - -
05/08:30pm 24.1 19.7 19.4 75 3.0 SSW 41 70 22 38 1005.2 - -
05/08:11pm 24.7 22.3 21.1 80 2.4 SW 35 54 19 29 1004.5 - -
05/08:00pm 25.1 22.1 19.9 73 3.4 SW 35 50 19 27 1004.2 - -
05/07:36pm 25.3 21.7 20.2 73 3.3 SW 39 59 21 32 1003.6 - -
05/07:30pm 25.3 22.9 21.9 81 2.3 SW 37 54 20 29 1003.5 - -
05/07:05pm 25.4 22.9 21.6 79 2.5 SW 37 52 20 28 1002.9 - -
05/07:00pm 25.4 22.9 22.3 83 2.1 WSW 39 57 21 31 1002.8 - -
05/06:58pm 25.4 23.2 22.9 86 1.7 WSW 39 57 21 31 1002.7 - -
05/06:56pm 25.4 22.7 22.6 84 1.9 WSW 41 57 22 31 1002.7 - -
05/06:45pm 25.6 23.0 23.6 89 1.4 W 43 61 23 33 1002.3 - -
05/06:30pm 26.0 24.4 23.2 84 1.9 W 37 52 20 28 1002.3 - -
05/06:29pm 26.0 24.9 23.4 85 1.8 W 35 52 19 28 1002.4 - -
05/06:15pm 25.9 25.3 23.3 85 1.8 W 32 43 17 23 1002.5 - -
05/06:12pm 26.0 25.7 23.2 84 1.9 W 30 39 16 21 1002.4 - -
05/06:00pm 26.0 25.8 22.8 82 2.2 W 28 41 15 22 1002.5 1002.5 -
05/05:30pm 25.9 26.6 22.3 80 2.4 WNW 22 32 12 17 1002.5 - -
05/05:27pm 26.0 27.0 22.1 79 2.6 WNW 20 32 11 17 1002.4 - -
05/05:00pm 25.9 26.8 21.5 76 2.9 WNW 19 35 10 19 1002.6 - -
05/04:49pm 25.6 26.1 21.2 76 2.9 WNW 20 30 11 16 1002.8 - -
05/04:30pm 25.7 26.2 20.8 74 3.2 WNW 19 28 10 15 1002.9 - -
05/04:00pm 25.4 26.4 21.0 76 2.9 WNW 17 28 9 15 1003.2 - -
05/03:30pm 26.0 26.7 20.4 71 3.7 WNW 17 30 9 16 1003.4 - -
05/03:06pm 26.2 27.3 20.4 70 3.8 NW 15 26 8 14 1003.7 - -
05/03:00pm 26.5 27.6 20.4 69 4.0 WNW 15 32 8 17 1003.6 1003.6 0.0
05/02:30pm 25.8 27.0 20.6 73 3.4 NNW 15 28 8 15 1003.6 - 0.0
05/02:00pm 26.1 27.0 20.1 69 3.9 NNW 15 30 8 16 1004.1 - 0.0
05/01:30pm 26.2 26.6 19.9 68 4.1 N 17 32 9 17 1004.8 - 0.0
05/01:00pm 25.4 25.1 19.5 70 3.8 NNW 20 24 11 13 1005.6 - 0.0
05/12:30pm 25.3 26.1 19.1 68 4.0 NNW 13 26 7 14 1006.1 - 0.0
05/12:00pm 25.2 27.1 20.6 75 3.0 N 11 24 6 13 1006.5 1006.5 0.0
05/11:30am 24.8 26.2 20.4 76 2.9 NE 13 26 7 14 1007.0 - 0.0
05/11:00am 24.7 25.9 20.7 78 2.6 NNE 15 33 8 18 1007.4 - 0.0
05/10:30am 23.4 23.7 19.5 79 2.5 NNE 17 22 9 12 1007.9 - 0.0
05/10:00am 24.2 25.6 18.7 71 3.5 N 9 15 5 8 1008.7 - 0.0
05/09:30am 24.1 25.5 18.7 72 3.4 N 9 17 5 9 1009.0 - 0.0
05/09:00am 24.0 25.6 18.3 70 3.6 N 7 13 4 7 1009.0 1009.0 0.0
05/08:30am 23.7 24.8 18.1 71 3.5 NNE 9 15 5 8 1009.1 - 0.0
05/08:00am 23.5 24.5 17.7 70 3.6 NNW 9 15 5 8 1009.4 - 0.0
05/07:30am 23.2 25.0 18.4 74 3.0 NNW 6 11 3 6 1009.4 - 0.0
05/07:00am 23.1 24.6 17.5 70 3.5 NNW 6 11 3 6 1009.3 - 0.0
05/06:30am 23.0 24.0 17.7 72 3.3 N 9 19 5 10 1009.0 - 0.0
05/06:00am 22.7 23.1 17.2 71 3.4 NNE 11 15 6 8 1008.7 1008.7 0.0
05/05:30am 22.4 23.0 16.9 71 3.4 N 9 15 5 8 1008.8 - 0.0
05/05:00am 22.2 22.3 16.4 69 3.5 N 11 15 6 8 1009.0 - 0.0
05/04:30am 22.3 23.0 16.2 68 3.7 N 7 13 4 7 1009.0 - 0.0
05/04:00am 21.8 21.7 16.0 69 3.5 N 11 17 6 9 1009.2 - 0.0
05/03:30am 21.1 21.8 16.1 73 3.0 N 7 9 4 5 1009.5 - 0.0
05/03:00am 21.8 22.7 16.5 72 3.2 N 7 11 4 6 1009.8 1009.8 0.0
05/02:30am 22.1 22.1 16.3 69 3.5 NNE 11 15 6 8 1010.2 - 0.0
05/02:00am 20.9 21.4 16.6 76 2.6 ENE 9 13 5 7 1010.6 - 0.0
05/01:30am 20.3 21.7 16.5 79 2.3 NE 4 7 2 4 1011.0 - 0.0
05/01:00am 21.2 21.6 16.4 74 2.9 ENE 9 11 5 6 1011.4 - 0.0
05/12:30am 21.6 21.9 16.1 71 3.3 ENE 9 13 5 7 1011.9 - 0.0
05/12:00am 21.8 21.9 16.5 72 3.2 ENE 11 13 6 7 1012.1 1012.1 0.0
 
Date/Time
EDT
Temp
°C
App
Temp
°C
Dew
Point
Rel
Hum
%
Delta-T
°C
Wind Press
QNH
hPa
Press
MSL
hPa
Rain
since 9 am
mm
Dir
 
Spd
km/h
Gust
km/h
Spd
kts
Gust
kts
04/11:30pm 21.3 22.0 16.2 72 3.1 E 7 9 4 5 1012.3 - 0.0
04/11:00pm 21.9 22.0 15.5 67 3.8 SE 9 9 5 5 1012.9 - 0.0
04/10:30pm 22.0 22.2 15.7 67 3.8 SE 9 11 5 6 1012.8 - 0.0
04/10:00pm 22.3 22.7 15.4 65 4.1 SSE 7 11 4 6 1013.2 - 0.0
04/09:30pm 22.4 22.9 15.6 65 4.1 SE 7 11 4 6 1013.2 - 0.0
04/09:00pm 22.6 22.7 15.4 64 4.3 SE 9 13 5 7 1013.3 1013.3 0.0
04/08:30pm 22.7 22.7 15.3 63 4.4 ESE 9 13 5 7 1013.2 - 0.0
04/08:00pm 22.8 22.9 15.5 63 4.4 ESE 9 15 5 8 1012.9 - 0.0
04/07:30pm 22.7 22.4 15.5 64 4.3 SE 11 15 6 8 1012.6 - 0.0
04/07:00pm 22.9 22.4 15.8 64 4.3 ESE 13 17 7 9 1012.6 - 0.0
04/06:30pm 23.3 23.1 15.8 62 4.5 E 11 15 6 8 1012.6 - 0.0
04/06:00pm 24.8 25.4 15.9 57 5.4 WSW 7 11 4 6 1012.7 1012.7 0.0
04/05:30pm 25.2 25.3 15.6 55 5.8 S 9 15 5 8 1012.7 - 0.0
04/05:00pm 25.2 25.5 16.0 56 5.6 SSW 9 17 5 9 1012.6 - 0.0
04/04:30pm 25.2 25.5 16.0 56 5.6 SW 9 13 5 7 1012.8 - 0.0
04/04:00pm 25.3 24.8 16.0 56 5.7 SW 13 17 7 9 1012.8 - 0.0
04/03:30pm 25.9 26.7 16.3 55 5.9 NW 7 17 4 9 1012.9 - 0.0
04/03:00pm 25.8 25.6 15.8 54 6.1 WSW 11 17 6 9 1013.3 1013.3 0.0
04/02:30pm 25.9 25.1 16.1 54 6.0 WSW 15 19 8 10 1013.6 - 0.0
04/02:00pm 25.7 25.2 16.0 55 5.9 WSW 13 17 7 9 1013.9 - 0.0
04/01:30pm 26.0 25.6 15.2 51 6.5 WSW 11 15 6 8 1014.1 - 0.0
04/01:00pm 25.8 26.0 15.8 54 6.1 WSW 9 11 5 6 1014.3 - 0.0
04/12:30pm 26.0 26.1 15.6 52 6.3 W 9 13 5 7 1014.5 - 0.0
04/12:00pm 25.8 25.9 15.4 52 6.3 W 9 13 5 7 1014.5 1014.5 0.0
04/11:30am 25.4 24.8 15.7 55 5.9 E 13 22 7 12 1014.6 - 0.0
04/11:00am 25.3 24.5 16.1 56 5.6 E 15 20 8 11 1014.6 - 0.0
04/10:30am 25.2 24.0 16.0 56 5.6 E 17 22 9 12 1014.6 - 0.0
04/10:00am 25.1 23.5 15.9 56 5.6 E 19 22 10 12 1014.6 - 0.0
04/09:30am 24.8 23.0 16.1 58 5.3 E 20 26 11 14 1014.6 - 0.0
04/09:00am 24.7 23.2 16.7 61 4.9 E 20 24 11 13 1014.6 1014.6 0.0
04/08:30am 24.1 22.5 16.4 62 4.7 E 20 24 11 13 1014.5 - 0.0
04/08:00am 23.4 22.1 16.9 67 4.0 E 19 24 10 13 1014.4 - 0.0
04/07:30am 21.8 21.8 17.2 75 2.8 ESE 13 20 7 11 1014.4 - 0.0
04/07:00am 21.8 21.4 17.2 75 2.8 ESE 15 24 8 13 1014.2 - 0.0
04/06:30am 22.0 21.9 16.9 73 3.1 SE 13 20 7 11 1013.9 - 0.0
04/06:00am 21.8 21.7 16.9 73 3.0 SE 13 17 7 9 1013.7 1013.7 0.0
04/05:30am 18.1 20.1 16.1 88 1.2 CALM 0 6 0 3 1013.5 - 0.0
04/05:00am 18.7 19.7 16.4 86 1.4 SE 6 7 3 4 1013.5 - 0.0
04/04:30am 18.5 20.7 16.5 88 1.2 CALM 0 0 0 0 1013.4 - 0.0
04/04:00am 18.0 20.0 16.1 89 1.1 CALM 0 6 0 3 1013.4 - 0.0
04/03:30am 18.4 20.5 16.2 87 1.3 CALM 0 0 0 0 1013.5 - 0.0
04/03:00am 19.4 21.6 16.6 84 1.7 CALM 0 0 0 0 1013.6 1013.6 0.0

Other Formats:

Comma delimited format used in spreadsheet applications
http://www.bom.gov.au/fwo/IDN60801/IDN60801.94995.axf

JavaScript Object Notation format (JSON) in row-major order
http://www.bom.gov.au/fwo/IDN60801/IDN60801.94995.json